Main page
METAR-TAF:

METAR-TAF

Airports :

Cazaux Air Base

Cazaux, France

latitude: 44-32N, longitude: 001-08W, elevation: 25 m

Current weather observation

The report was made 34 minutes ago, at 14:00 UTC
Wind 4 kt from the South/Southeast, varying between East/Southeast and Southwest
Temperature 19°C
Humidity 52%
Pressure 1025 hPa
Visibility 10 km or more
no clouds below 1500 m and no cumulonimbus

METAR: LFBC 021400Z AUTO 16004KT 120V230 CAVOK 19/09 Q1025 NOSIG

Time: 15:34 (14:34 UTC)

Forecast

The report was made 6 hours and 34 minutes ago, at 08:00 UTC
Forecast valid from 02 at 09 UTC to 03 at 09 UTC
Wind 2 kt from variable directions
Visibility 10 km or more
no clouds below 1500 m and no cumulonimbus
Probability 30% :
Temporary
from 02 at 20 UTC to 03 at 07 UTC
Visibility: 2000 m
Shallow fog

TAF: LFBC 020800Z 0209/0309 VRB02KT CAVOK PROB30 TEMPO 0220/0307 2000 MIFG

Weather observations and forecasts of more than 4000 airports (METAR and TAF reports).

The available stations are represented by yellow and red dots on the map.

Hover mouse over dot to see the name of the station.

Then click to see weather observations and forecasts.

To change the map : click on the green buttons with a black cross to zoom in, on the green button with a dash to zoom out, or on the green arrows for adjacent maps.


METAR-TAF: